Çanakkale, Türkiye

Saat: 03:48 PM EEST Tarih: 05 Temmuz 2015 (GMT +0300)
Dimokritos | | Change Station
CLOSE
Current Station
Hava Meydanı
Location: Alexandroupoli,
Yükseklik: 10 ft
Nearby Weather Stations

Elev 10 ft 40.86 °N, 25.94 °E | Updated 28 minutes ago

Scattered Clouds
Az Bulutlu
79
Feels Like 79
N
14
Rüzgar Değişken Rüzgar from GB

Bugün
High -- | Low -- F°
--% Chance of Precip.
Dün
High -- | Low -- F°
Precip. -- inç
5:50 AM 8:46 PM
Şişkin Ay, 85% visible
Basınç 30.01 inç
Görüş Uzaklığı 6.2 mil
Bulutlar Az Bulutlu 4000 ft
Çiğ noktası 63
Nem oranı 57%
Yağış 0.00 inç
Kar Kalınlığı Not available.
7 out of 12
Pollen Not available.
Hava Kalitesi Not available.
Flu Activity Not available.
METAR LGAL 051220Z 23012KT 9999 SCT040 26/17 Q1016

More Conditions Fewer Conditions

Basınç 30.01 inç
Görüş Uzaklığı 6.2 mil
Bulutlar Az Bulutlu 4000 ft
Çiğ noktası 63
Nem oranı 57%
Yağış 0.00 inç
Kar Kalınlığı Not available.
7 out of 12
Pollen Not available.
Hava Kalitesi Not available.
Flu Activity Not available.
METAR LGAL 051220Z 23012KT 9999 SCT040 26/17 Q1016

More Conditions Fewer Conditions

10-Day Weather Forecast

×

Almanac

Gökbilim

Jul. 05, 2015 Rise Set
Gerçek Zaman
Günlük Tan
Deniz Tanı
Geceyarısı Yıldız Zamanı
Ay
Görünür Işığın Uzunluğu
Günün Uzunluğu
Tomorrow will be .
, % of the Moon is Illuminated

Günün En Yüksekleri

Country Highs Country Lows

Community

WunderPhotos

Upload Photos

1,835,248 photos uploaded!

WunderBlogs® & News

Nearby

Hava Kalitesi

  Hava Kalitesi Hava Kalitesi Endeksi Kirletici
Not available.

Kar Kalınlığı

Station Depth Yükseklik

Earthquake Activity

Şehir Distance Mag. Time & Date
Minimum magnitude displayed is 2.5.

Coastal Water Temperatures

Yer Sıcaklık

Stations

Nearby Weather Stations

Station Location Sıcaklık Rüzgar Etkisi Çiğ noktası Nem oranı Rüzgar Precip. Elev Güncellenme Zamanı Biçim